RUK6UA EGAA-EGPH
Flight info
| Callsign | RUK6UA |
|---|---|
| Flight time | 0h 28m |
| Altitude | 17000 |
| Route | BLACA P600 TUNSO |
| Aircraft | B738/M-SDE3FGILRWY/SB1 |
Departure
| Time | 2026-04-25 09:55 |
|---|---|
| Airport | Belfast International Airport (EGAA) |
Arrival
| Time | 2026-04-25 10:23 |
|---|---|
| Airport | Edinburgh Airport (EGPH) |
| Time | Latitude | Longitude | Altitude | Speed | Heading |
|---|---|---|---|---|---|
| 2026-04-25 09:39 | 54.66110 | -6.21350 | 246 ft | 0 kts | 246° |
| 2026-04-25 09:47 | 54.66112 | -6.21338 | 246 ft | 2 kts | 247° |
| 2026-04-25 09:47 | 54.66120 | -6.21309 | 246 ft | 2 kts | 245° |
| 2026-04-25 09:47 | 54.66126 | -6.21285 | 246 ft | 3 kts | 229° |
| 2026-04-25 09:47 | 54.66146 | -6.21275 | 246 ft | 0 kts | 160° |
| 2026-04-25 09:48 | 54.66132 | -6.21266 | 247 ft | 2 kts | 156° |
| 2026-04-25 09:48 | 54.66127 | -6.21262 | 247 ft | 0 kts | 155° |
| 2026-04-25 09:48 | 54.66127 | -6.21263 | 247 ft | 0 kts | 155° |
| 2026-04-25 09:51 | 54.66119 | -6.21256 | 247 ft | 2 kts | 155° |
| 2026-04-25 09:51 | 54.66091 | -6.21235 | 248 ft | 5 kts | 158° |
| 2026-04-25 09:51 | 54.66061 | -6.21211 | 249 ft | 4 kts | 146° |
| 2026-04-25 09:52 | 54.66060 | -6.21148 | 250 ft | 5 kts | 79° |
| 2026-04-25 09:52 | 54.66069 | -6.21078 | 252 ft | 5 kts | 71° |
| 2026-04-25 09:52 | 54.66093 | -6.20982 | 253 ft | 12 kts | 65° |
| 2026-04-25 09:52 | 54.66139 | -6.20812 | 252 ft | 19 kts | 65° |
| 2026-04-25 09:53 | 54.66201 | -6.20580 | 253 ft | 24 kts | 64° |
| 2026-04-25 09:53 | 54.66286 | -6.20265 | 256 ft | 23 kts | 65° |
| 2026-04-25 09:53 | 54.66360 | -6.19990 | 261 ft | 17 kts | 65° |
| 2026-04-25 09:53 | 54.66394 | -6.19818 | 263 ft | 10 kts | 90° |
| 2026-04-25 09:54 | 54.66357 | -6.19703 | 264 ft | 8 kts | 151° |
| 2026-04-25 09:54 | 54.66287 | -6.19648 | 265 ft | 4 kts | 155° |
| 2026-04-25 09:54 | 54.66262 | -6.19680 | 266 ft | 8 kts | 240° |
| 2026-04-25 09:54 | 54.66159 | -6.20057 | 260 ft | 73 kts | 245° |
| 2026-04-25 09:55 | 54.65723 | -6.21672 | 240 ft | 165 kts | 246° |
| 2026-04-25 09:55 | 54.65106 | -6.24032 | 1138 ft | 177 kts | 245° |
| 2026-04-25 09:55 | 54.64536 | -6.26206 | 2323 ft | 169 kts | 245° |
| 2026-04-25 09:55 | 54.63948 | -6.28486 | 2964 ft | 187 kts | 245° |
| 2026-04-25 09:56 | 54.63434 | -6.31091 | 3632 ft | 206 kts | 265° |
| 2026-04-25 09:56 | 54.63839 | -6.33945 | 4321 ft | 225 kts | 304° |
| 2026-04-25 09:56 | 54.65283 | -6.35898 | 5246 ft | 234 kts | 341° |
| 2026-04-25 09:56 | 54.67183 | -6.36025 | 6049 ft | 246 kts | 18° |
| 2026-04-25 09:57 | 54.68773 | -6.33956 | 6946 ft | 251 kts | 62° |
| 2026-04-25 09:57 | 54.69166 | -6.30600 | 7807 ft | 254 kts | 100° |
| 2026-04-25 09:57 | 54.68799 | -6.26976 | 8500 ft | 270 kts | 95° |
| 2026-04-25 09:57 | 54.69116 | -6.23081 | 9207 ft | 288 kts | 76° |
| 2026-04-25 09:58 | 54.69833 | -6.19115 | 9865 ft | 305 kts | 74° |
| 2026-04-25 09:58 | 54.70635 | -6.14917 | 10548 ft | 321 kts | 74° |
| 2026-04-25 09:58 | 54.71455 | -6.10557 | 11202 ft | 337 kts | 74° |
| 2026-04-25 09:58 | 54.72314 | -6.05908 | 11843 ft | 352 kts | 74° |
| 2026-04-25 09:59 | 54.73195 | -6.01079 | 12451 ft | 368 kts | 74° |
| 2026-04-25 09:59 | 54.74145 | -5.95858 | 13178 ft | 381 kts | 74° |
| 2026-04-25 09:59 | 54.75085 | -5.90677 | 14040 ft | 387 kts | 74° |
| 2026-04-25 09:59 | 54.76026 | -5.85480 | 14927 ft | 392 kts | 74° |
| 2026-04-25 10:00 | 54.76996 | -5.80110 | 15588 ft | 404 kts | 74° |
| 2026-04-25 10:00 | 54.77991 | -5.74584 | 16081 ft | 412 kts | 74° |
| 2026-04-25 10:00 | 54.78982 | -5.69067 | 16386 ft | 414 kts | 74° |
| 2026-04-25 10:00 | 54.79984 | -5.63476 | 16679 ft | 414 kts | 74° |
| 2026-04-25 10:01 | 54.80976 | -5.57921 | 16975 ft | 416 kts | 74° |
| 2026-04-25 10:01 | 54.81981 | -5.52277 | 17173 ft | 419 kts | 74° |
| 2026-04-25 10:01 | 54.82975 | -5.46681 | 17175 ft | 417 kts | 74° |
| 2026-04-25 10:01 | 54.84072 | -5.40490 | 17175 ft | 417 kts | 74° |
| 2026-04-25 10:02 | 54.85096 | -5.34687 | 17175 ft | 418 kts | 75° |
| 2026-04-25 10:02 | 54.86082 | -5.29065 | 17176 ft | 417 kts | 75° |
| 2026-04-25 10:02 | 54.87113 | -5.23406 | 17169 ft | 418 kts | 72° |
| 2026-04-25 10:02 | 54.88561 | -5.18131 | 17170 ft | 420 kts | 58° |
| 2026-04-25 10:03 | 54.90937 | -5.13800 | 17170 ft | 424 kts | 38° |
| 2026-04-25 10:03 | 54.93898 | -5.10823 | 17175 ft | 425 kts | 28° |
| 2026-04-25 10:03 | 54.97032 | -5.08172 | 17167 ft | 425 kts | 26° |
| 2026-04-25 10:03 | 55.00176 | -5.05560 | 17169 ft | 425 kts | 26° |
| 2026-04-25 10:04 | 55.03267 | -5.02968 | 17167 ft | 424 kts | 27° |
| 2026-04-25 10:04 | 55.06385 | -5.00301 | 17168 ft | 424 kts | 28° |
| 2026-04-25 10:04 | 55.09345 | -4.97145 | 17155 ft | 423 kts | 38° |
| 2026-04-25 10:04 | 55.11699 | -4.92908 | 17171 ft | 421 kts | 55° |
| 2026-04-25 10:05 | 55.13374 | -4.87671 | 17172 ft | 420 kts | 66° |
| 2026-04-25 10:05 | 55.14857 | -4.82357 | 17167 ft | 420 kts | 63° |
| 2026-04-25 10:05 | 55.16598 | -4.77144 | 17179 ft | 421 kts | 59° |
| 2026-04-25 10:05 | 55.18459 | -4.72042 | 17181 ft | 422 kts | 57° |
| 2026-04-25 10:06 | 55.20300 | -4.67058 | 17186 ft | 422 kts | 58° |
| 2026-04-25 10:06 | 55.22157 | -4.61947 | 17188 ft | 423 kts | 58° |
| 2026-04-25 10:06 | 55.23987 | -4.56783 | 17185 ft | 423 kts | 59° |
| 2026-04-25 10:06 | 55.25764 | -4.51673 | 17183 ft | 423 kts | 59° |
| 2026-04-25 10:07 | 55.27551 | -4.46479 | 17180 ft | 423 kts | 59° |
| 2026-04-25 10:07 | 55.29309 | -4.41334 | 17181 ft | 424 kts | 59° |
| 2026-04-25 10:07 | 55.31076 | -4.36144 | 17180 ft | 422 kts | 59° |
| 2026-04-25 10:07 | 55.32662 | -4.31478 | 17177 ft | 423 kts | 60° |
| 2026-04-25 10:08 | 55.34159 | -4.27065 | 17177 ft | 423 kts | 59° |
| 2026-04-25 10:08 | 55.35654 | -4.22656 | 17170 ft | 416 kts | 60° |
| 2026-04-25 10:08 | 55.37081 | -4.18442 | 17175 ft | 396 kts | 59° |
| 2026-04-25 10:08 | 55.38451 | -4.14388 | 17179 ft | 377 kts | 59° |
| 2026-04-25 10:09 | 55.39754 | -4.10528 | 17173 ft | 358 kts | 59° |
| 2026-04-25 10:09 | 55.40985 | -4.06873 | 17178 ft | 341 kts | 59° |
| 2026-04-25 10:09 | 55.42166 | -4.03363 | 17177 ft | 325 kts | 59° |
| 2026-04-25 10:09 | 55.43298 | -3.99994 | 17073 ft | 320 kts | 59° |
| 2026-04-25 10:10 | 55.44432 | -3.96615 | 16820 ft | 322 kts | 59° |
| 2026-04-25 10:10 | 55.45550 | -3.93280 | 16574 ft | 318 kts | 59° |
| 2026-04-25 10:10 | 55.46664 | -3.89949 | 16321 ft | 316 kts | 59° |
| 2026-04-25 10:10 | 55.47774 | -3.86629 | 16075 ft | 316 kts | 58° |
| 2026-04-25 10:11 | 55.48885 | -3.83302 | 15822 ft | 316 kts | 58° |
| 2026-04-25 10:11 | 55.50000 | -3.79957 | 15443 ft | 313 kts | 58° |
| 2026-04-25 10:11 | 55.51083 | -3.76702 | 15060 ft | 311 kts | 58° |
| 2026-04-25 10:11 | 55.52168 | -3.73440 | 14690 ft | 308 kts | 58° |
| 2026-04-25 10:12 | 55.53250 | -3.70184 | 14309 ft | 307 kts | 58° |
| 2026-04-25 10:12 | 55.54320 | -3.66956 | 13936 ft | 305 kts | 57° |
| 2026-04-25 10:12 | 55.56435 | -3.60567 | 13199 ft | 301 kts | 57° |
| 2026-04-25 10:13 | 55.57486 | -3.57386 | 12813 ft | 300 kts | 57° |
| 2026-04-25 10:13 | 55.58526 | -3.54234 | 12447 ft | 298 kts | 57° |
| 2026-04-25 10:13 | 55.59617 | -3.51161 | 12079 ft | 293 kts | 47° |
| 2026-04-25 10:13 | 55.61135 | -3.48943 | 11756 ft | 283 kts | 22° |
| 2026-04-25 10:14 | 55.62978 | -3.48179 | 11644 ft | 265 kts | 355° |
| 2026-04-25 10:14 | 55.64700 | -3.48927 | 11338 ft | 252 kts | 328° |
| 2026-04-25 10:14 | 55.65964 | -3.50969 | 10913 ft | 246 kts | 303° |
| 2026-04-25 10:14 | 55.66767 | -3.53586 | 10431 ft | 245 kts | 295° |
| 2026-04-25 10:15 | 55.67454 | -3.56293 | 10025 ft | 238 kts | 294° |
| 2026-04-25 10:15 | 55.68113 | -3.58963 | 9476 ft | 239 kts | 294° |
| 2026-04-25 10:15 | 55.68767 | -3.61618 | 8928 ft | 235 kts | 294° |
| 2026-04-25 10:15 | 55.69419 | -3.64261 | 8288 ft | 236 kts | 294° |
| 2026-04-25 10:16 | 55.70069 | -3.66899 | 7682 ft | 235 kts | 294° |
| 2026-04-25 10:16 | 55.70711 | -3.69500 | 7128 ft | 234 kts | 294° |
| 2026-04-25 10:16 | 55.71359 | -3.72128 | 6553 ft | 234 kts | 294° |
| 2026-04-25 10:16 | 55.72001 | -3.74741 | 6036 ft | 232 kts | 294° |
| 2026-04-25 10:17 | 55.72631 | -3.77305 | 5874 ft | 219 kts | 294° |
| 2026-04-25 10:17 | 55.73345 | -3.79620 | 5689 ft | 208 kts | 312° |
| 2026-04-25 10:17 | 55.74503 | -3.80881 | 5604 ft | 194 kts | 348° |
| 2026-04-25 10:17 | 55.75977 | -3.80492 | 5545 ft | 197 kts | 25° |
| 2026-04-25 10:18 | 55.77380 | -3.78995 | 5477 ft | 203 kts | 30° |
| 2026-04-25 10:18 | 55.78777 | -3.77475 | 5394 ft | 204 kts | 29° |
| 2026-04-25 10:18 | 55.80188 | -3.75962 | 5238 ft | 204 kts | 29° |
| 2026-04-25 10:18 | 55.81607 | -3.74457 | 4975 ft | 205 kts | 32° |
| 2026-04-25 10:19 | 55.82820 | -3.72474 | 4660 ft | 204 kts | 50° |
| 2026-04-25 10:19 | 55.83738 | -3.70090 | 4321 ft | 202 kts | 56° |
| 2026-04-25 10:19 | 55.84596 | -3.67625 | 3977 ft | 200 kts | 57° |
| 2026-04-25 10:19 | 55.85434 | -3.65204 | 3654 ft | 198 kts | 57° |
| 2026-04-25 10:20 | 55.86274 | -3.62767 | 3326 ft | 198 kts | 57° |
| 2026-04-25 10:20 | 55.87086 | -3.60401 | 3018 ft | 197 kts | 58° |
| 2026-04-25 10:20 | 55.87793 | -3.58344 | 2742 ft | 196 kts | 58° |
| 2026-04-25 10:20 | 55.88497 | -3.56298 | 2458 ft | 192 kts | 58° |
| 2026-04-25 10:21 | 55.89187 | -3.54278 | 2181 ft | 188 kts | 58° |
| 2026-04-25 10:21 | 55.89849 | -3.52344 | 1959 ft | 180 kts | 58° |
| 2026-04-25 10:21 | 55.90492 | -3.50463 | 1688 ft | 175 kts | 59° |
| 2026-04-25 10:21 | 55.91166 | -3.48492 | 1423 ft | 160 kts | 59° |
| 2026-04-25 10:22 | 55.91795 | -3.46651 | 1185 ft | 144 kts | 59° |
| 2026-04-25 10:22 | 55.92178 | -3.45528 | 1039 ft | 135 kts | 59° |
| 2026-04-25 10:22 | 55.92936 | -3.43304 | 751 ft | 135 kts | 59° |
| 2026-04-25 10:22 | 55.93499 | -3.41637 | 537 ft | 134 kts | 59° |
| 2026-04-25 10:23 | 55.94070 | -3.39981 | 323 ft | 134 kts | 59° |
| 2026-04-25 10:23 | 55.94629 | -3.38344 | 114 ft | 135 kts | 59° |
| 2026-04-25 10:23 | 55.95090 | -3.36985 | 98 ft | 73 kts | 56° |
| 2026-04-25 10:23 | 55.95259 | -3.36487 | 101 ft | 12 kts | 64° |
| 2026-04-25 10:24 | 55.95209 | -3.36367 | 102 ft | 10 kts | 148° |
| 2026-04-25 10:24 | 55.95184 | -3.36341 | 102 ft | 0 kts | 149° |
| 2026-04-25 10:25 | 55.95152 | -3.36312 | 101 ft | 8 kts | 166° |
| 2026-04-25 10:25 | 55.95099 | -3.36382 | 101 ft | 8 kts | 237° |
| 2026-04-25 10:25 | 55.95062 | -3.36491 | 101 ft | 11 kts | 238° |
| 2026-04-25 10:25 | 55.94997 | -3.36684 | 101 ft | 15 kts | 238° |
| 2026-04-25 10:26 | 55.94928 | -3.36825 | 99 ft | 8 kts | 177° |
| 2026-04-25 10:26 | 55.94867 | -3.36783 | 101 ft | 6 kts | 170° |
| 2026-04-25 10:26 | 55.94805 | -3.36778 | 102 ft | 7 kts | 178° |
| 2026-04-25 10:26 | 55.94760 | -3.36741 | 103 ft | 5 kts | 121° |
| 2026-04-25 10:27 | 55.94752 | -3.36659 | 103 ft | 5 kts | 89° |
| 2026-04-25 10:27 | 55.94752 | -3.36622 | 103 ft | 0 kts | 89° |
| 2026-04-25 10:27 | 55.94753 | -3.36621 | 103 ft | 0 kts | 89° |